Time;durP1;ratioP1;P1;durP2;ratioP2;P2;SDS_P1;SDS_P2;PMS_P1;PMS_P2;Temp;Humidity;BMP_temperature;BMP_pressure;BME280_temperature;BME280_humidity;BME280_pressure;Samples;Min_cycle;Max_cycle;Signal;HPM_P1;HPM_P2
2023/06/11 00:01:57;;;;;;;;;;;;;;;20.58;48.88;100848.78;7319642;19;19950;-58
2023/06/11 00:04:25;;;;;;;;;;;;;;;20.58;49.35;100840.81;7326518;19;20772;-58
2023/06/11 00:06:54;;;;;;;;;;;;;;;20.58;49.28;100846.13;7321674;19;19982;-58
2023/06/11 00:09:19;;;;;;;;;;;;;;;20.58;48.61;100851.44;7324315;19;19923;-58
2023/06/11 00:11:45;;;;;;;;;;;;;;;20.56;48.85;100848.03;7323010;19;19919;-58
2023/06/11 00:14:10;;;;;;;;;;;;;;;20.56;48.79;100858.66;7321095;19;19925;-58
2023/06/11 00:16:36;;;;;;;;;;;;;;;20.55;48.89;100863.09;7326387;19;19919;-57
2023/06/11 00:19:02;;;;;;;;;;;;;;;20.55;48.87;100847.19;7324999;19;19990;-59
2023/06/11 00:21:29;;;;;;;;;;;;;;;20.56;48.93;100858.66;7321920;19;19925;-57
2023/06/11 00:23:54;;;;;;;;;;;;;;;20.54;49.12;100849.94;7325702;19;19919;-58
2023/06/11 00:26:20;;;;;;;;;;;;;;;20.54;49.30;100857.91;7327217;19;20280;-58
2023/06/11 00:28:45;;;;;;;;;;;;;;;20.54;48.80;100849.94;7320190;19;19957;-58
2023/06/11 00:31:10;;;;;;;;;;;;;;;20.52;49.24;100857.13;7301098;19;19918;-58
2023/06/11 00:33:36;;;;;;;;;;;;;;;20.52;48.89;100854.47;7322233;19;19934;-58
2023/06/11 00:36:01;;;;;;;;;;;;;;;20.51;48.28;100852.78;7325125;19;19918;-58
2023/06/11 00:38:28;;;;;;;;;;;;;;;20.50;48.65;100848.44;7320151;19;19938;-58
2023/06/11 00:40:53;;;;;;;;;;;;;;;20.48;48.77;100853.84;7324848;19;19919;-58
2023/06/11 00:43:21;;;;;;;;;;;;;;;20.44;48.76;100858.44;7325327;19;19944;-58
2023/06/11 00:45:47;;;;;;;;;;;;;;;20.42;48.96;100857.66;7319717;19;19973;-58
2023/06/11 00:48:12;;;;;;;;;;;;;;;20.40;49.04;100854.25;7323085;19;19994;-58
2023/06/11 00:50:44;;;;;;;;;;;;;;;20.39;48.49;100863.16;7323519;19;19918;-58
2023/06/11 00:53:10;;;;;;;;;;;;;;;20.35;49.16;100861.66;7319226;19;19940;-59
2023/06/11 00:55:35;;;;;;;;;;;;;;;20.33;49.09;100855.59;7326472;19;19911;-58
2023/06/11 00:58:02;;;;;;;;;;;;;;;20.31;48.71;100852.16;7325019;19;20008;-58
2023/06/11 01:00:27;;;;;;;;;;;;;;;20.29;49.20;100847.91;7320591;19;19914;-58
2023/06/11 01:02:59;;;;;;;;;;;;;;;20.25;49.37;100849.88;7324111;19;22128;-58
2023/06/11 01:05:25;;;;;;;;;;;;;;;20.24;49.38;100837.59;7322185;19;19949;-58
2023/06/11 01:07:51;;;;;;;;;;;;;;;20.22;49.60;100842.09;7321271;19;19982;-58
2023/06/11 01:10:18;;;;;;;;;;;;;;;20.20;49.48;100836.06;7325041;19;19925;-58
2023/06/11 01:12:43;;;;;;;;;;;;;;;20.20;49.93;100841.34;7322063;19;21417;-58
2023/06/11 01:15:13;;;;;;;;;;;;;;;20.21;49.67;100843.06;7323013;19;19918;-58
2023/06/11 01:17:52;;;;;;;;;;;;;;;20.20;49.60;100841.34;7320550;19;19954;-58
2023/06/11 01:20:25;;;;;;;;;;;;;;;20.21;49.72;100829.81;7324905;19;19927;-58
2023/06/11 01:22:56;;;;;;;;;;;;;;;20.20;49.90;100825.44;7326921;19;19998;-58
2023/06/11 01:25:29;;;;;;;;;;;;;;;20.20;50.19;100823.66;7317590;19;19915;-58
2023/06/11 01:28:08;;;;;;;;;;;;;;;20.22;49.97;100828.84;7323359;19;19919;-58
2023/06/11 01:30:36;;;;;;;;;;;;;;;20.22;49.79;100828.84;7318232;19;19927;-58
2023/06/11 01:33:02;;;;;;;;;;;;;;;19.90;49.66;100773.34;7321798;19;19931;-58
2023/06/11 01:35:28;;;;;;;;;;;;;;;20.21;50.05;100824.50;7321484;19;19923;-58
2023/06/11 01:37:57;;;;;;;;;;;;;;;20.19;49.90;100818.44;7321961;19;19994;-58
2023/06/11 01:40:23;;;;;;;;;;;;;;;20.18;49.86;100827.34;7321110;19;19938;-59
2023/06/11 01:42:49;;;;;;;;;;;;;;;20.17;50.13;100825.63;7321931;19;19930;-58
2023/06/11 01:45:16;;;;;;;;;;;;;;;20.15;49.83;100822.22;7323372;19;19946;-58
2023/06/11 01:47:44;;;;;;;;;;;;;;;20.14;49.82;100823.19;7324567;19;19946;-58
2023/06/11 01:50:09;;;;;;;;;;;;;;;20.14;49.90;100826.69;7323707;19;20014;-58
2023/06/11 01:52:35;;;;;;;;;;;;;;;20.12;50.21;100817.09;7317214;19;20031;-58
2023/06/11 01:55:01;;;;;;;;;;;;;;;20.13;50.03;100826.78;7322566;19;19918;-58
2023/06/11 01:57:26;;;;;;;;;;;;;;;20.12;50.11;100833.00;7321495;19;19998;-58
2023/06/11 01:59:51;;;;;;;;;;;;;;;20.11;49.90;100833.97;7321824;19;19925;-58
2023/06/11 02:02:17;;;;;;;;;;;;;;;20.10;49.76;100834.91;7325119;19;20892;-58
2023/06/11 02:04:42;;;;;;;;;;;;;;;20.08;50.39;100828.84;7325160;19;19925;-58
2023/06/11 02:07:08;;;;;;;;;;;;;;;20.06;50.09;100822.78;7322132;19;19922;-58
2023/06/11 02:09:33;;;;;;;;;;;;;;;20.06;49.88;100817.47;7323365;19;20447;-58
2023/06/11 02:11:58;;;;;;;;;;;;;;;20.05;49.50;100815.78;7325938;19;19923;-57
2023/06/11 02:14:23;;;;;;;;;;;;;;;20.04;50.01;100824.69;7324270;19;19946;-58
2023/06/11 02:16:49;;;;;;;;;;;;;;;20.00;50.14;100808.09;7326109;19;19931;-58
2023/06/11 02:19:14;;;;;;;;;;;;;;;20.00;50.43;100815.19;7322397;19;19923;-58
2023/06/11 02:21:39;;;;;;;;;;;;;;;19.98;50.51;100804.69;7325522;19;19911;-58
2023/06/11 02:24:05;;;;;;;;;;;;;;;19.97;50.72;100813.56;7320087;19;19919;-58
2023/06/11 02:26:30;;;;;;;;;;;;;;;19.97;50.52;100813.56;7324803;19;20010;-58
2023/06/11 02:28:55;;;;;;;;;;;;;;;19.96;50.30;100811.88;7314712;19;19927;-57
2023/06/11 02:31:20;;;;;;;;;;;;;;;19.96;50.73;100812.72;7315455;19;20676;-58
2023/06/11 02:33:46;;;;;;;;;;;;;;;19.96;50.41;100814.53;7316671;19;19922;-58
2023/06/11 02:36:11;;;;;;;;;;;;;;;19.95;50.60;100824.28;7317519;19;19914;-56
2023/06/11 02:38:36;;;;;;;;;;;;;;;19.94;50.72;100821.72;7313095;19;19926;-58
2023/06/11 02:41:01;;;;;;;;;;;;;;;19.92;50.62;100826.25;7317953;19;20018;-58
2023/06/11 02:43:27;;;;;;;;;;;;;;;19.90;50.48;100818.41;7315660;19;19954;-57
2023/06/11 02:45:52;;;;;;;;;;;;;;;19.89;50.32;100822.00;7317405;19;19958;-58
2023/06/11 02:48:17;;;;;;;;;;;;;;;19.88;50.77;100817.66;7316209;19;19926;-58
2023/06/11 02:50:42;;;;;;;;;;;;;;;19.86;50.85;100821.31;7315858;19;19915;-57
2023/06/11 02:53:08;;;;;;;;;;;;;;;19.85;50.62;100817.81;7318621;19;19915;-58
2023/06/11 02:55:33;;;;;;;;;;;;;;;19.83;50.48;100814.41;7314394;19;20770;-57
2023/06/11 02:57:58;;;;;;;;;;;;;;;19.82;50.66;100815.38;7317432;19;19930;-58
2023/06/11 03:00:25;;;;;;;;;;;;;;;19.82;50.60;100820.66;7295145;19;19911;-58
2023/06/11 03:02:50;;;;;;;;;;;;;;;19.55;50.73;100785.16;7312851;19;19926;-57
2023/06/11 03:05:15;;;;;;;;;;;;;;;19.80;50.65;100817.22;7315937;19;19910;-58
2023/06/11 03:07:40;;;;;;;;;;;;;;;19.77;50.32;100812.13;7314043;19;19939;-57
2023/06/11 03:10:06;;;;;;;;;;;;;;;19.75;50.06;100819.31;7316999;19;19925;-58
2023/06/11 03:12:31;;;;;;;;;;;;;;;19.74;50.30;100822.06;7318411;19;20435;-58
2023/06/11 03:14:57;;;;;;;;;;;;;;;19.72;49.46;100818.63;7315214;19;20689;-58
2023/06/11 03:17:22;;;;;;;;;;;;;;;19.67;50.08;100813.63;7317331;19;20307;-58
2023/06/11 03:19:47;;;;;;;;;;;;;;;19.64;50.16;100814.63;7312685;19;20396;-58
2023/06/11 03:22:12;;;;;;;;;;;;;;;19.60;50.99;100817.56;7318269;19;19914;-57
2023/06/11 03:24:38;;;;;;;;;;;;;;;19.35;51.19;100773.91;7313464;19;19918;-57
2023/06/11 03:27:03;;;;;;;;;;;;;;;19.55;51.34;100812.50;7316751;19;19970;-57
2023/06/11 03:29:28;;;;;;;;;;;;;;;19.54;51.07;100810.78;7317125;19;19938;-57
2023/06/11 03:31:53;;;;;;;;;;;;;;;19.54;51.20;100815.25;7313772;19;20336;-58
2023/06/11 03:34:19;;;;;;;;;;;;;;;19.54;51.60;100815.25;7315008;19;19957;-58
2023/06/11 03:36:44;;;;;;;;;;;;;;;19.53;51.17;100819.69;7313954;19;20457;-58
2023/06/11 03:39:10;;;;;;;;;;;;;;;19.54;51.31;100820.53;7315315;19;20670;-58
2023/06/11 03:41:35;;;;;;;;;;;;;;;19.54;51.37;100809.94;7320047;19;20005;-58
2023/06/11 03:44:00;;;;;;;;;;;;;;;19.54;51.72;100812.59;7320148;19;20350;-58
2023/06/11 03:46:26;;;;;;;;;;;;;;;19.56;51.59;100810.69;7317227;19;19928;-58
2023/06/11 03:48:51;;;;;;;;;;;;;;;19.56;51.33;100823.94;7320293;19;19994;-57
2023/06/11 03:51:16;;;;;;;;;;;;;;;19.55;51.79;100822.22;7315550;19;19918;-57
2023/06/11 03:53:42;;;;;;;;;;;;;;;19.56;51.23;100818.63;7309623;19;20002;-57
2023/06/11 03:56:07;;;;;;;;;;;;;;;19.55;51.42;100816.94;7311873;19;20393;-58
2023/06/11 03:58:32;;;;;;;;;;;;;;;19.55;51.69;100816.94;7313980;19;19911;-57
2023/06/11 04:00:58;;;;;;;;;;;;;;;19.54;51.51;100815.25;7312687;19;20013;-58
2023/06/11 04:03:23;;;;;;;;;;;;;;;19.53;51.32;100816.19;7315748;19;19936;-58
2023/06/11 04:05:48;;;;;;;;;;;;;;;19.19;51.81;100760.72;7314888;19;19936;-58
2023/06/11 04:08:14;;;;;;;;;;;;;;;19.53;51.65;100818.84;7319292;19;19923;-57
2023/06/11 04:10:39;;;;;;;;;;;;;;;19.53;51.71;100824.13;7317058;19;19914;-58
2023/06/11 04:13:04;;;;;;;;;;;;;;;19.52;51.85;100827.72;7320101;19;20361;-58
2023/06/11 04:15:30;;;;;;;;;;;;;;;19.52;51.39;100822.44;7319493;19;21485;-58
2023/06/11 04:17:55;;;;;;;;;;;;;;;19.53;51.46;100824.13;7319679;19;19910;-58
2023/06/11 04:20:21;;;;;;;;;;;;;;;19.52;51.82;100825.94;7317343;19;19918;-58
2023/06/11 04:22:46;;;;;;;;;;;;;;;19.52;51.87;100835.69;7317816;19;19915;-58
2023/06/11 04:25:12;;;;;;;;;;;;;;;19.51;51.58;100842.75;7315119;19;19915;-57
2023/06/11 04:27:38;;;;;;;;;;;;;;;19.51;51.83;100836.59;7320091;19;20442;-58
2023/06/11 04:30:04;;;;;;;;;;;;;;;19.51;51.72;100836.59;7316906;19;20425;-58
2023/06/11 04:32:34;;;;;;;;;;;;;;;19.51;51.56;100831.28;7319121;19;19919;-57
2023/06/11 04:35:01;;;;;;;;;;;;;;;19.51;51.53;100841.88;7314202;19;19919;-58
2023/06/11 04:37:29;;;;;;;;;;;;;;;19.49;51.53;100839.34;7316201;19;20042;-58
2023/06/11 04:39:56;;;;;;;;;;;;;;;19.48;51.69;100836.78;7320736;19;19914;-58
2023/06/11 04:42:24;;;;;;;;;;;;;;;19.48;51.87;100836.78;7312627;19;19934;-58
2023/06/11 04:44:50;;;;;;;;;;;;;;;19.48;51.94;100837.63;7318440;19;19918;-58
2023/06/11 04:47:16;;;;;;;;;;;;;;;19.49;51.82;100838.50;7314746;19;20344;-57
2023/06/11 04:49:43;;;;;;;;;;;;;;;19.48;52.01;100842.94;7319862;19;19915;-58
2023/06/11 04:52:09;;;;;;;;;;;;;;;19.50;51.86;100829.59;7313129;19;20023;-59
2023/06/11 04:54:34;;;;;;;;;;;;;;;19.52;51.65;100840.97;7319535;19;19914;-58
2023/06/11 04:56:59;;;;;;;;;;;;;;;19.52;51.80;100840.97;7310318;19;19935;-57
2023/06/11 04:59:26;;;;;;;;;;;;;;;19.52;51.71;100841.81;7319379;19;20010;-58
2023/06/11 05:01:53;;;;;;;;;;;;;;;19.53;51.79;100838.22;7315104;19;19915;-58
2023/06/11 05:04:19;;;;;;;;;;;;;;;19.57;51.89;100846.84;7314816;19;19926;-58
2023/06/11 05:06:47;;;;;;;;;;;;;;;19.57;52.28;100837.13;7316204;19;19919;-58
2023/06/11 05:09:12;;;;;;;;;;;;;;;19.59;52.10;100837.91;7315577;19;21449;-58
2023/06/11 05:11:39;;;;;;;;;;;;;;;19.63;52.17;100835.94;7318596;19;19919;-58
2023/06/11 05:14:04;;;;;;;;;;;;;;;19.64;52.05;100834.97;7313666;19;19919;-58
2023/06/11 05:16:29;;;;;;;;;;;;;;;19.68;52.27;100839.16;7317472;19;19925;-58
2023/06/11 05:18:54;;;;;;;;;;;;;;;19.70;52.21;100838.13;7311609;19;19927;-57
2023/06/11 05:21:20;;;;;;;;;;;;;;;19.74;52.19;100841.44;7316021;19;21411;-57
2023/06/11 05:23:45;;;;;;;;;;;;;;;19.76;51.68;100836.91;7314698;19;19926;-57
2023/06/11 05:26:13;;;;;;;;;;;;;;;19.78;51.81;100842.13;7316930;19;20427;-58
2023/06/11 05:28:39;;;;;;;;;;;;;;;19.80;51.95;100837.59;7308799;19;21367;-58
2023/06/11 05:31:06;;;;;;;;;;;;;;;19.82;51.99;100836.56;7315740;19;19915;-58
2023/06/11 05:33:31;;;;;;;;;;;;;;;19.85;52.08;100840.81;7315840;19;20602;-58
2023/06/11 05:35:57;;;;;;;;;;;;;;;19.86;51.67;100843.38;7318611;19;19933;-58
2023/06/11 05:38:24;;;;;;;;;;;;;;;19.89;51.56;100843.19;7314858;19;19929;-57
2023/06/11 05:40:49;;;;;;;;;;;;;;;19.92;51.81;100847.44;7314548;19;19950;-57
2023/06/11 05:43:14;;;;;;;;;;;;;;;19.94;51.84;100832.31;7313200;19;20239;-58
2023/06/11 05:45:47;;;;;;;;;;;;;;;19.98;51.92;100841.81;7315680;19;19935;-58
2023/06/11 05:48:12;;;;;;;;;;;;;;;20.00;51.48;100833.75;7315005;19;20621;-58
2023/06/11 05:50:37;;;;;;;;;;;;;;;20.03;51.84;100842.38;7312315;19;19918;-58
2023/06/11 05:53:03;;;;;;;;;;;;;;;20.06;51.85;100838.69;7316991;19;19926;-57
2023/06/11 05:55:28;;;;;;;;;;;;;;;20.08;51.85;100827.06;7315635;19;19990;-58
2023/06/11 05:57:53;;;;;;;;;;;;;;;20.12;51.60;100827.69;7310219;19;20522;-58
2023/06/11 06:00:18;;;;;;;;;;;;;;;20.15;51.85;100832.84;7314339;19;19972;-58
2023/06/11 06:02:44;;;;;;;;;;;;;;;20.19;51.70;100823.75;7314598;19;19926;-58
2023/06/11 06:05:09;;;;;;;;;;;;;;;20.22;51.96;100828.84;7316066;19;19926;-58
2023/06/11 06:07:35;;;;;;;;;;;;;;;20.24;51.93;100837.59;7313381;19;20487;-58
2023/06/11 06:10:01;;;;;;;;;;;;;;;20.29;52.02;100839.97;7315004;19;19911;-58
2023/06/11 06:12:27;;;;;;;;;;;;;;;20.31;51.53;100841.56;7313642;19;20522;-58
2023/06/11 06:14:52;;;;;;;;;;;;;;;20.34;51.51;100849.34;7315228;19;19959;-58
2023/06/11 06:17:17;;;;;;;;;;;;;;;20.38;51.73;100852.66;7313149;19;19922;-58
2023/06/11 06:19:42;;;;;;;;;;;;;;;20.41;51.64;100845.34;7315496;19;20532;-58
2023/06/11 06:22:07;;;;;;;;;;;;;;;20.44;51.50;100844.31;7314559;19;19946;-57
2023/06/11 06:24:33;;;;;;;;;;;;;;;20.47;51.90;100850.31;7314499;19;19927;-58
2023/06/11 06:26:58;;;;;;;;;;;;;;;20.52;51.58;100857.13;7309768;19;21193;-58
2023/06/11 06:29:24;;;;;;;;;;;;;;;20.55;51.56;100862.25;7313304;19;21100;-58
2023/06/11 06:31:50;;;;;;;;;;;;;;;20.61;51.53;100851.25;7311166;19;19926;-58
2023/06/11 06:34:15;;;;;;;;;;;;;;;20.66;51.87;100854.47;7312861;19;19934;-58
2023/06/11 06:36:40;;;;;;;;;;;;;;;20.69;51.96;100856.97;7312187;19;19929;-58
2023/06/11 06:39:06;;;;;;;;;;;;;;;20.75;51.93;100853.91;7310030;19;19938;-58
2023/06/11 06:41:31;;;;;;;;;;;;;;;20.81;51.72;100852.66;7312360;19;19919;-59
2023/06/11 06:43:56;;;;;;;;;;;;;;;20.86;51.56;100867.34;7311770;19;19918;-57
2023/06/11 06:46:21;;;;;;;;;;;;;;;20.92;51.25;100861.66;7313542;19;19919;-58
2023/06/11 06:48:47;;;;;;;;;;;;;;;20.97;51.35;100864.88;7309249;19;19911;-58
2023/06/11 06:51:12;;;;;;;;;;;;;;;21.02;51.55;100869.88;7310109;19;19915;-58
2023/06/11 06:53:37;;;;;;;;;;;;;;;21.08;51.83;100871.28;7313215;19;19931;-58
2023/06/11 06:56:05;;;;;;;;;;;;;;;21.13;51.63;100869.19;7316530;19;20345;-58
2023/06/11 06:58:31;;;;;;;;;;;;;;;21.18;51.41;100883.88;7306658;19;19919;-59
2023/06/11 07:00:56;;;;;;;;;;;;;;;21.24;51.87;100872.03;7313198;19;19922;-58
2023/06/11 07:03:22;;;;;;;;;;;;;;;21.30;51.59;100876.97;7314154;19;19929;-58
2023/06/11 07:05:48;;;;;;;;;;;;;;;21.36;51.30;100873.94;7307483;19;20014;-58
2023/06/11 07:08:13;;;;;;;;;;;;;;;21.40;51.27;100875.44;7314790;19;19998;-58
2023/06/11 07:10:40;;;;;;;;;;;;;;;21.43;51.65;100872.56;7310593;19;20624;-59
2023/06/11 07:13:08;;;;;;;;;;;;;;;21.53;51.76;100871.97;7314918;19;20303;-57
2023/06/11 07:15:33;;;;;;;;;;;;;;;21.58;51.86;100869.84;7313281;19;20684;-57
2023/06/11 07:17:58;;;;;;;;;;;;;;;21.66;51.64;100878.19;7313181;19;19915;-58
2023/06/11 07:20:23;;;;;;;;;;;;;;;21.71;51.53;100865.44;7310499;19;20272;-57
2023/06/11 07:22:49;;;;;;;;;;;;;;;21.78;51.31;100856.09;7311524;19;19925;-58
2023/06/11 07:25:14;;;;;;;;;;;;;;;21.83;52.10;100856.63;7308473;19;19927;-57
2023/06/11 07:27:39;;;;;;;;;;;;;;;21.90;51.87;100865.06;7310658;19;20760;-57
2023/06/11 07:30:05;;;;;;;;;;;;;;;21.96;51.96;100870.81;7314767;19;19934;-58
2023/06/11 07:32:30;;;;;;;;;;;;;;;22.03;51.92;100866.78;7313525;19;19919;-58
2023/06/11 07:34:56;;;;;;;;;;;;;;;22.12;52.20;100875.13;7314827;19;19946;-57
2023/06/11 07:37:21;;;;;;;;;;;;;;;22.20;51.48;100871.00;7311395;19;20600;-58
2023/06/11 07:39:46;;;;;;;;;;;;;;;22.29;51.52;100872.16;7318713;19;19921;-58
2023/06/11 07:42:11;;;;;;;;;;;;;;;22.38;51.54;100873.34;7318390;19;19911;-58
2023/06/11 07:44:37;;;;;;;;;;;;;;;22.45;51.63;100880.75;7320319;19;19915;-58
2023/06/11 07:47:02;;;;;;;;;;;;;;;22.51;51.66;100872.38;7314898;19;19923;-58
2023/06/11 07:49:28;;;;;;;;;;;;;;;22.59;51.82;100878.97;7316926;19;19933;-58
2023/06/11 07:51:53;;;;;;;;;;;;;;;22.65;50.99;100879.38;7314641;19;19915;-58
2023/06/11 07:54:18;;;;;;;;;;;;;;;22.72;51.17;100885.13;7319367;19;20448;-58
2023/06/11 07:56:46;;;;;;;;;;;;;;;22.47;51.32;100838.94;7312893;19;20023;-58
2023/06/11 07:59:12;;;;;;;;;;;;;;;22.83;51.55;100887.03;7317912;19;19919;-58
2023/06/11 08:01:37;;;;;;;;;;;;;;;22.90;51.14;100893.66;7317174;19;19922;-58
2023/06/11 08:04:02;;;;;;;;;;;;;;;22.94;51.07;100888.00;7313637;19;19921;-57
2023/06/11 08:06:27;;;;;;;;;;;;;;;23.02;51.03;100888.31;7317559;19;20531;-58
2023/06/11 08:08:53;;;;;;;;;;;;;;;23.08;51.24;100894.16;7316469;19;20010;-58
2023/06/11 08:11:18;;;;;;;;;;;;;;;23.14;51.48;100893.72;7313187;19;19951;-58
2023/06/11 08:13:44;;;;;;;;;;;;;;;23.21;51.25;100897.63;7314074;19;19923;-58
2023/06/11 08:16:09;;;;;;;;;;;;;;;22.99;51.19;100843.25;7313488;19;19914;-58
2023/06/11 08:18:34;;;;;;;;;;;;;;;23.36;51.27;100896.50;7302094;19;19955;-58
2023/06/11 08:21:00;;;;;;;;;;;;;;;23.45;51.78;100895.00;7301093;19;19919;-58
2023/06/11 08:23:26;;;;;;;;;;;;;;;23.53;51.42;100896.13;7306610;19;19927;-58
2023/06/11 08:25:51;;;;;;;;;;;;;;;23.64;51.37;100895.38;7300918;19;20591;-58
2023/06/11 08:28:16;;;;;;;;;;;;;;;23.75;51.32;100889.22;7317184;19;20637;-58
2023/06/11 08:30:42;;;;;;;;;;;;;;;23.87;50.93;100884.78;7313660;19;19982;-59
2023/06/11 08:33:08;;;;;;;;;;;;;;;23.98;51.11;100892.84;7318016;19;20047;-58
2023/06/11 08:35:33;;;;;;;;;;;;;;;24.07;51.16;100887.63;7316077;19;19935;-59
2023/06/11 08:37:58;;;;;;;;;;;;;;;24.17;51.02;100882.44;7319761;19;20205;-58
2023/06/11 08:40:24;;;;;;;;;;;;;;;24.27;50.90;100891.44;7319863;19;19919;-59
2023/06/11 08:42:50;;;;;;;;;;;;;;;24.37;50.77;100888.94;7313912;19;20594;-58
2023/06/11 08:45:15;;;;;;;;;;;;;;;24.47;50.83;100884.59;7311251;19;20211;-58
2023/06/11 08:47:46;;;;;;;;;;;;;;;24.57;50.57;100890.91;7316000;19;19941;-58
2023/06/11 08:50:11;;;;;;;;;;;;;;;24.67;50.43;100891.03;7313191;19;19951;-58
2023/06/11 08:52:38;;;;;;;;;;;;;;;24.77;50.65;100891.16;7319379;19;19915;-58
2023/06/11 08:55:03;;;;;;;;;;;;;;;24.88;50.45;100896.50;7317160;19;21339;-58
2023/06/11 08:57:30;;;;;;;;;;;;;;;24.99;50.11;100891.16;7315713;19;19922;-59
2023/06/11 08:59:56;;;;;;;;;;;;;;;25.11;50.47;100884.00;7316784;19;20622;-58
2023/06/11 09:02:21;;;;;;;;;;;;;;;25.23;50.45;100887.50;7314251;19;20012;-58
2023/06/11 09:04:46;;;;;;;;;;;;;;;25.34;50.40;100884.78;7312112;19;19922;-58
2023/06/11 09:07:21;;;;;;;;;;;;;;;25.46;50.14;100889.16;7311971;19;19922;-58
2023/06/11 09:09:51;;;;;;;;;;;;;;;25.60;49.96;100894.22;7315200;19;20010;-59
2023/06/11 09:12:16;;;;;;;;;;;;;;;25.73;49.70;100887.84;7317410;19;19918;-59
2023/06/11 09:14:50;;;;;;;;;;;;;;;25.85;49.65;100885.03;7318108;19;20277;-60
2023/06/11 09:17:15;;;;;;;;;;;;;;;25.98;49.78;100884.84;7315888;19;20623;-59
2023/06/11 09:19:41;;;;;;;;;;;;;;;26.08;49.65;100874.19;7317595;19;20002;-60
2023/06/11 09:22:06;;;;;;;;;;;;;;;26.20;49.27;100883.00;7317589;19;20720;-57
2023/06/11 09:24:31;;;;;;;;;;;;;;;26.29;49.07;100887.56;7312757;19;19936;-58
2023/06/11 09:26:58;;;;;;;;;;;;;;;26.39;48.93;100883.13;7315091;19;21236;-58
2023/06/11 09:29:24;;;;;;;;;;;;;;;26.45;48.55;100879.94;7313870;19;20509;-58
2023/06/11 09:32:00;;;;;;;;;;;;;;;26.56;48.85;100884.34;7317041;19;20486;-58
2023/06/11 09:34:26;;;;;;;;;;;;;;;26.67;48.60;100883.44;7316596;19;19915;-58
2023/06/11 09:36:51;;;;;;;;;;;;;;;26.76;48.43;100887.97;7315539;19;20615;-58
2023/06/11 09:39:17;;;;;;;;;;;;;;;26.83;48.05;100886.47;7317564;19;20006;-59
2023/06/11 09:41:46;;;;;;;;;;;;;;;26.88;48.23;100878.88;7317008;19;20519;-59
2023/06/11 09:44:11;;;;;;;;;;;;;;;26.93;47.80;100882.00;7314831;19;19925;-58
2023/06/11 09:46:37;;;;;;;;;;;;;;;26.98;47.90;100884.28;7309082;19;19926;-58
2023/06/11 09:49:02;;;;;;;;;;;;;;;27.03;47.56;100882.88;7299580;19;19918;-58
2023/06/11 09:51:28;;;;;;;;;;;;;;;27.09;47.32;100879.66;7311921;19;19919;-58
2023/06/11 09:53:53;;;;;;;;;;;;;;;27.13;47.56;100883.78;7327848;19;19918;-58
2023/06/11 09:56:20;;;;;;;;;;;;;;;27.15;47.21;100889.84;7325583;19;19926;-58
2023/06/11 09:58:47;;;;;;;;;;;;;;;27.18;46.91;100882.53;7319713;19;19922;-58
2023/06/11 10:01:12;;;;;;;;;;;;;;;27.20;47.16;100883.22;7313298;19;20347;-58
2023/06/11 10:03:38;;;;;;;;;;;;;;;27.21;47.26;100884.91;7309222;19;19977;-58
2023/06/11 10:06:05;;;;;;;;;;;;;;;27.23;46.99;100888.31;7318528;19;19911;-58
2023/06/11 10:08:32;;;;;;;;;;;;;;;27.26;47.23;100894.22;7311836;19;20205;-58
2023/06/11 10:11:00;;;;;;;;;;;;;;;27.28;46.73;100892.28;7312101;19;20042;-58
2023/06/11 10:13:35;;;;;;;;;;;;;;;27.32;47.07;100895.50;7301665;19;20387;-59
2023/06/11 10:16:01;;;;;;;;;;;;;;;27.33;46.76;100897.22;7301768;19;19922;-58
2023/06/11 10:18:26;;;;;;;;;;;;;;;27.35;46.48;100892.56;7306046;19;20022;-57
2023/06/11 10:20:53;;;;;;;;;;;;;;;27.38;46.43;100897.66;7308014;19;20018;-58
2023/06/11 10:23:19;;;;;;;;;;;;;;;27.37;46.33;100890.56;7308332;19;19969;-58
2023/06/11 10:25:51;;;;;;;;;;;;;;;27.45;46.07;100890.75;7301516;19;19930;-59
2023/06/11 10:28:16;;;;;;;;;;;;;;;27.50;46.71;100901.06;7305284;19;20345;-59
2023/06/11 10:30:50;;;;;;;;;;;;;;;27.53;46.10;100907.00;7303838;19;19919;-58
2023/06/11 10:33:16;;;;;;;;;;;;;;;27.59;45.88;100903.75;7296246;19;19915;-58
2023/06/11 10:35:46;;;;;;;;;;;;;;;27.48;46.07;100874.38;7303646;19;19929;-58
2023/06/11 10:38:16;;;;;;;;;;;;;;;27.73;45.92;100907.03;7314495;19;20336;-58
2023/06/11 10:40:42;;;;;;;;;;;;;;;27.82;46.00;100903.50;7313100;19;20833;-58
2023/06/11 10:43:17;;;;;;;;;;;;;;;27.90;46.01;100903.66;7309560;19;19919;-58
2023/06/11 10:45:42;;;;;;;;;;;;;;;27.99;45.66;100900.13;7326394;19;19929;-58
2023/06/11 10:48:08;;;;;;;;;;;;;;;28.07;45.56;100900.22;7322594;19;19918;-58
2023/06/11 10:50:33;;;;;;;;;;;;;;;28.13;45.81;100905.06;7322342;19;19982;-58
2023/06/11 10:53:08;;;;;;;;;;;;;;;28.18;45.62;100905.47;7324838;19;20607;-58
2023/06/11 10:55:34;;;;;;;;;;;;;;;28.25;45.37;100902.19;7322185;19;19919;-58
2023/06/11 10:58:00;;;;;;;;;;;;;;;28.31;45.82;100902.47;7321744;19;19959;-58
2023/06/11 11:00:32;;;;;;;;;;;;;;;28.37;45.66;100909.13;7322358;19;20810;-58
2023/06/11 11:02:59;;;;;;;;;;;;;;;28.42;45.73;100905.00;7324783;19;19922;-58
2023/06/11 11:05:25;;;;;;;;;;;;;;;28.48;45.15;100913.47;7327347;19;19922;-58
2023/06/11 11:07:53;;;;;;;;;;;;;;;28.50;45.34;100912.34;7323000;19;19914;-58
2023/06/11 11:10:22;;;;;;;;;;;;;;;28.53;45.01;100905.81;7326058;19;19951;-58
2023/06/11 11:12:48;;;;;;;;;;;;;;;28.55;44.93;100910.06;7328659;19;20823;-58
2023/06/11 11:15:14;;;;;;;;;;;;;;;28.55;44.89;100907.38;7327224;19;19914;-58
2023/06/11 11:17:40;;;;;;;;;;;;;;;28.36;44.93;100888.63;7329604;19;19915;-58
2023/06/11 11:20:12;;;;;;;;;;;;;;;28.55;44.95;100915.44;7334929;19;19915;-58
2023/06/11 11:22:38;;;;;;;;;;;;;;;28.55;44.99;100915.44;7326448;19;19927;-58
2023/06/11 11:25:04;;;;;;;;;;;;;;;28.54;45.08;100916.44;7331180;19;21786;-58
2023/06/11 11:27:30;;;;;;;;;;;;;;;28.51;44.74;100919.41;7319674;19;19918;-58
2023/06/11 11:29:58;;;;;;;;;;;;;;;28.49;45.04;100926.78;7327010;19;19921;-58
2023/06/11 11:32:28;;;;;;;;;;;;;;;28.45;44.52;100925.38;7323772;19;19915;-59
2023/06/11 11:34:55;;;;;;;;;;;;;;;28.38;44.42;100926.94;7332480;19;19929;-58
2023/06/11 11:37:21;;;;;;;;;;;;;;;28.30;44.73;100927.63;7330417;19;19915;-58
2023/06/11 11:39:47;;;;;;;;;;;;;;;28.19;44.47;100925.97;7330195;19;19982;-58
2023/06/11 11:42:12;;;;;;;;;;;;;;;28.06;44.49;100925.38;7328410;19;20353;-58
2023/06/11 11:44:41;;;;;;;;;;;;;;;27.98;44.29;100937.81;7329456;19;19951;-59
2023/06/11 11:47:10;;;;;;;;;;;;;;;27.86;43.94;100929.06;7332758;19;19931;-58
2023/06/11 11:49:36;;;;;;;;;;;;;;;27.75;44.42;100934.59;7328944;19;20001;-58
2023/06/11 11:52:01;;;;;;;;;;;;;;;27.64;44.38;100936.38;7331507;19;19947;-58
2023/06/11 11:54:27;;;;;;;;;;;;;;;27.55;44.09;100931.84;7334148;19;20500;-58
2023/06/11 11:57:07;;;;;;;;;;;;;;;27.47;44.34;100929.00;7328373;19;19926;-58
2023/06/11 11:59:39;;;;;;;;;;;;;;;27.20;43.99;100902.00;7330876;19;19914;-58
2023/06/11 12:02:05;;;;;;;;;;;;;;;27.35;44.42;100924.75;7329415;19;21143;-58
2023/06/11 12:04:33;;;;;;;;;;;;;;;27.43;44.87;100932.97;7320138;19;19947;-58
2023/06/11 12:07:02;;;;;;;;;;;;;;;27.65;45.20;100926.50;7322620;19;19926;-58
2023/06/11 12:09:27;;;;;;;;;;;;;;;27.93;46.06;100928.38;7316473;19;19935;-57
2023/06/11 12:11:53;;;;;;;;;;;;;;;28.25;45.50;100929.06;7305993;19;19922;-58
2023/06/11 12:14:18;;;;;;;;;;;;;;;28.61;45.53;100930.97;7328233;19;19927;-58
2023/06/11 12:16:47;;;;;;;;;;;;;;;29.06;46.41;100942.88;7330850;19;19929;-59
2023/06/11 12:19:15;;;;;;;;;;;;;;;29.58;45.82;100938.63;7331617;19;20719;-58
2023/06/11 12:21:40;;;;;;;;;;;;;;;29.99;45.48;100925.53;7329011;19;19935;-57
2023/06/11 12:24:09;;;;;;;;;;;;;;;30.51;45.07;100939.09;7331787;19;19919;-58
2023/06/11 12:26:34;;;;;;;;;;;;;;;30.89;43.89;100937.00;7330837;19;19919;-58
2023/06/11 12:29:00;;;;;;;;;;;;;;;31.11;44.37;100913.97;7326715;19;19926;-58
2023/06/11 12:31:25;;;;;;;;;;;;;;;31.32;43.76;100890.13;7330397;19;20026;-58